sensor_id;sensor_type;location;lat;lon;timestamp;pressure;altitude;pressure_sealevel;temperature;humidity
11041;BME280;5573;49.592;8.662;2023-03-14T00:01:17;98095.91;;;10.71;100.00
11041;BME280;5573;49.592;8.662;2023-03-14T00:03:46;98083.03;;;10.68;100.00
11041;BME280;5573;49.592;8.662;2023-03-14T00:06:15;98081.19;;;10.61;100.00
11041;BME280;5573;49.592;8.662;2023-03-14T00:08:45;98084.06;;;10.74;100.00
11041;BME280;5573;49.592;8.662;2023-03-14T00:11:15;98094.50;;;10.83;100.00
11041;BME280;5573;49.592;8.662;2023-03-14T00:13:46;98094.88;;;10.65;100.00
11041;BME280;5573;49.592;8.662;2023-03-14T00:16:14;98042.34;;;10.39;100.00
11041;BME280;5573;49.592;8.662;2023-03-14T00:18:42;98086.53;;;10.68;100.00
11041;BME280;5573;49.592;8.662;2023-03-14T00:21:11;98078.56;;;10.74;100.00
11041;BME280;5573;49.592;8.662;2023-03-14T00:23:41;98079.34;;;10.74;100.00
11041;BME280;5573;49.592;8.662;2023-03-14T00:26:12;98072.44;;;10.66;100.00
11041;BME280;5573;49.592;8.662;2023-03-14T00:28:41;98068.50;;;10.67;100.00
11041;BME280;5573;49.592;8.662;2023-03-14T00:31:11;98075.81;;;10.54;100.00
11041;BME280;5573;49.592;8.662;2023-03-14T00:33:40;98071.03;;;10.58;100.00
11041;BME280;5573;49.592;8.662;2023-03-14T00:36:10;98068.00;;;10.72;100.00
11041;BME280;5573;49.592;8.662;2023-03-14T00:38:39;98073.34;;;10.80;100.00
11041;BME280;5573;49.592;8.662;2023-03-14T00:41:12;98071.03;;;10.58;100.00
11041;BME280;5573;49.592;8.662;2023-03-14T00:43:40;98069.63;;;10.70;100.00
11041;BME280;5573;49.592;8.662;2023-03-14T00:46:09;98070.59;;;10.80;100.00
11041;BME280;5573;49.592;8.662;2023-03-14T00:48:38;98065.75;;;10.67;100.00
11041;BME280;5573;49.592;8.662;2023-03-14T00:51:07;98057.84;;;10.69;100.00
11041;BME280;5573;49.592;8.662;2023-03-14T00:53:37;98071.94;;;10.71;100.00
11041;BME280;5573;49.592;8.662;2023-03-14T00:56:08;98070.97;;;10.62;100.00
11041;BME280;5573;49.592;8.662;2023-03-14T00:58:38;98048.66;;;10.76;100.00
11041;BME280;5573;49.592;8.662;2023-03-14T01:01:08;98055.63;;;10.81;100.00
11041;BME280;5573;49.592;8.662;2023-03-14T01:03:36;98060.31;;;10.84;100.00
11041;BME280;5573;49.592;8.662;2023-03-14T01:06:11;98066.63;;;10.81;100.00
11041;BME280;5573;49.592;8.662;2023-03-14T01:08:42;98062.72;;;10.82;100.00
11041;BME280;5573;49.592;8.662;2023-03-14T01:11:11;98023.56;;;10.37;100.00
11041;BME280;5573;49.592;8.662;2023-03-14T01:13:41;98076.53;;;10.78;100.00
11041;BME280;5573;49.592;8.662;2023-03-14T01:16:10;98073.34;;;10.80;100.00
11041;BME280;5573;49.592;8.662;2023-03-14T01:18:40;98072.66;;;10.75;100.00
11041;BME280;5573;49.592;8.662;2023-03-14T01:21:12;98084.53;;;10.89;100.00
11041;BME280;5573;49.592;8.662;2023-03-14T01:23:40;98074.91;;;10.81;100.00
11041;BME280;5573;49.592;8.662;2023-03-14T01:26:08;98053.13;;;10.70;100.00
11041;BME280;5573;49.592;8.662;2023-03-14T01:28:38;98000.81;;;10.53;100.00
11041;BME280;5573;49.592;8.662;2023-03-14T01:31:09;98058.22;;;10.88;100.00
11041;BME280;5573;49.592;8.662;2023-03-14T01:33:38;98042.22;;;11.03;100.00
11041;BME280;5573;49.592;8.662;2023-03-14T01:36:08;98052.16;;;10.96;100.00
11041;BME280;5573;49.592;8.662;2023-03-14T01:38:38;98046.38;;;10.91;100.00
11041;BME280;5573;49.592;8.662;2023-03-14T01:41:12;98036.47;;;10.77;100.00
11041;BME280;5573;49.592;8.662;2023-03-14T01:43:42;98045.88;;;10.96;100.00
11041;BME280;5573;49.592;8.662;2023-03-14T01:46:24;98034.75;;;10.83;100.00
11041;BME280;5573;49.592;8.662;2023-03-14T01:48:57;98028.75;;;10.88;100.00
11041;BME280;5573;49.592;8.662;2023-03-14T01:51:31;98033.06;;;10.89;100.00
11041;BME280;5573;49.592;8.662;2023-03-14T01:54:05;98022.16;;;11.02;100.00
11041;BME280;5573;49.592;8.662;2023-03-14T01:56:35;98016.75;;;10.98;100.00
11041;BME280;5573;49.592;8.662;2023-03-14T01:59:06;98006.75;;;10.88;100.00
11041;BME280;5573;49.592;8.662;2023-03-14T02:01:37;98005.50;;;11.09;100.00
11041;BME280;5573;49.592;8.662;2023-03-14T02:04:07;97987.19;;;11.03;100.00
11041;BME280;5573;49.592;8.662;2023-03-14T02:06:44;97984.16;;;10.97;100.00
11041;BME280;5573;49.592;8.662;2023-03-14T02:09:16;97900.75;;;10.51;100.00
11041;BME280;5573;49.592;8.662;2023-03-14T02:11:45;97972.97;;;11.04;100.00
11041;BME280;5573;49.592;8.662;2023-03-14T02:14:30;97976.84;;;10.90;100.00
11041;BME280;5573;49.592;8.662;2023-03-14T02:17:19;97975.03;;;11.00;100.00
11041;BME280;5573;49.592;8.662;2023-03-14T02:20:10;97963.94;;;11.04;100.00
11041;BME280;5573;49.592;8.662;2023-03-14T02:22:45;97967.03;;;11.06;100.00
11041;BME280;5573;49.592;8.662;2023-03-14T02:25:16;97977.97;;;10.93;100.00
11041;BME280;5573;49.592;8.662;2023-03-14T02:27:48;97958.09;;;11.02;100.00
11041;BME280;5573;49.592;8.662;2023-03-14T02:30:19;97956.03;;;10.89;100.00
11041;BME280;5573;49.592;8.662;2023-03-14T02:32:51;97949.69;;;10.92;100.00
11041;BME280;5573;49.592;8.662;2023-03-14T02:35:22;97961.19;;;10.87;100.00
11041;BME280;5573;49.592;8.662;2023-03-14T02:37:53;97955.00;;;10.99;100.00
11041;BME280;5573;49.592;8.662;2023-03-14T02:40:25;97954.16;;;10.86;100.00
11041;BME280;5573;49.592;8.662;2023-03-14T02:42:54;97953.19;;;10.93;100.00
11041;BME280;5573;49.592;8.662;2023-03-14T02:45:34;97955.78;;;11.00;100.00
11041;BME280;5573;49.592;8.662;2023-03-14T02:48:04;97940.41;;;11.03;100.00
11041;BME280;5573;49.592;8.662;2023-03-14T02:50:36;97952.94;;;11.04;100.00
11041;BME280;5573;49.592;8.662;2023-03-14T02:53:04;97933.59;;;10.91;100.00
11041;BME280;5573;49.592;8.662;2023-03-14T02:55:33;97946.81;;;10.96;100.00
11041;BME280;5573;49.592;8.662;2023-03-14T02:58:09;97955.25;;;10.89;100.00
11041;BME280;5573;49.592;8.662;2023-03-14T03:00:37;97962.06;;;10.84;100.00
11041;BME280;5573;49.592;8.662;2023-03-14T03:03:07;97962.47;;;10.83;100.00
11041;BME280;5573;49.592;8.662;2023-03-14T03:05:34;97957.84;;;10.80;100.00
11041;BME280;5573;49.592;8.662;2023-03-14T03:08:03;97941.34;;;10.80;100.00
11041;BME280;5573;49.592;8.662;2023-03-14T03:10:32;97940.53;;;10.79;100.00
11041;BME280;5573;49.592;8.662;2023-03-14T03:13:00;97930.50;;;10.72;100.00
11041;BME280;5573;49.592;8.662;2023-03-14T03:15:30;97926.09;;;10.58;100.00
11041;BME280;5573;49.592;8.662;2023-03-14T03:17:58;97924.88;;;10.60;100.00
11041;BME280;5573;49.592;8.662;2023-03-14T03:20:26;97924.66;;;10.70;100.00
11041;BME280;5573;49.592;8.662;2023-03-14T03:22:54;97924.97;;;10.56;100.00
11041;BME280;5573;49.592;8.662;2023-03-14T03:25:22;97909.97;;;10.61;100.00
11041;BME280;5573;49.592;8.662;2023-03-14T03:27:50;97908.25;;;10.67;100.00
11041;BME280;5573;49.592;8.662;2023-03-14T03:30:18;97900.06;;;10.63;100.00
11041;BME280;5573;49.592;8.662;2023-03-14T03:32:48;97897.31;;;10.63;100.00
11041;BME280;5573;49.592;8.662;2023-03-14T03:35:16;97897.47;;;10.56;100.00
11041;BME280;5573;49.592;8.662;2023-03-14T03:37:44;97879.88;;;10.53;100.00
11041;BME280;5573;49.592;8.662;2023-03-14T03:40:12;97880.56;;;10.57;100.00
11041;BME280;5573;49.592;8.662;2023-03-14T03:42:43;97871.94;;;10.39;100.00
11041;BME280;5573;49.592;8.662;2023-03-14T03:45:11;97868.63;;;10.48;100.00
11041;BME280;5573;49.592;8.662;2023-03-14T03:47:49;97866.72;;;10.45;100.00
11041;BME280;5573;49.592;8.662;2023-03-14T03:50:17;97853.03;;;10.41;100.00
11041;BME280;5573;49.592;8.662;2023-03-14T03:52:45;97852.44;;;10.33;100.00
11041;BME280;5573;49.592;8.662;2023-03-14T03:55:12;97855.09;;;10.37;100.00
11041;BME280;5573;49.592;8.662;2023-03-14T03:57:42;97845.41;;;10.32;100.00
11041;BME280;5573;49.592;8.662;2023-03-14T04:00:11;97849.25;;;10.35;100.00
11041;BME280;5573;49.592;8.662;2023-03-14T04:02:42;97863.78;;;10.35;100.00
11041;BME280;5573;49.592;8.662;2023-03-14T04:05:15;97850.53;;;10.30;100.00
11041;BME280;5573;49.592;8.662;2023-03-14T04:07:51;97852.00;;;10.35;100.00
11041;BME280;5573;49.592;8.662;2023-03-14T04:10:23;97847.91;;;10.43;100.00
11041;BME280;5573;49.592;8.662;2023-03-14T04:13:04;97846.50;;;10.35;100.00
11041;BME280;5573;49.592;8.662;2023-03-14T04:15:33;97854.50;;;10.29;100.00
11041;BME280;5573;49.592;8.662;2023-03-14T04:18:07;97860.34;;;10.31;100.00
11041;BME280;5573;49.592;8.662;2023-03-14T04:20:36;97858.66;;;10.37;100.00
11041;BME280;5573;49.592;8.662;2023-03-14T04:23:05;97858.31;;;10.35;100.00
11041;BME280;5573;49.592;8.662;2023-03-14T04:25:33;97849.47;;;10.44;100.00
11041;BME280;5573;49.592;8.662;2023-03-14T04:28:03;97836.31;;;10.52;100.00
11041;BME280;5573;49.592;8.662;2023-03-14T04:30:32;97851.88;;;10.58;100.00
11041;BME280;5573;49.592;8.662;2023-03-14T04:33:06;97852.81;;;10.68;100.00
11041;BME280;5573;49.592;8.662;2023-03-14T04:35:40;97838.22;;;10.55;100.00
11041;BME280;5573;49.592;8.662;2023-03-14T04:38:13;97840.09;;;10.58;100.00
11041;BME280;5573;49.592;8.662;2023-03-14T04:40:43;97836.47;;;10.45;100.00
11041;BME280;5573;49.592;8.662;2023-03-14T04:43:12;97839.94;;;10.65;100.00
11041;BME280;5573;49.592;8.662;2023-03-14T04:45:47;97822.41;;;10.59;100.00
11041;BME280;5573;49.592;8.662;2023-03-14T04:48:15;97842.34;;;10.63;100.00
11041;BME280;5573;49.592;8.662;2023-03-14T04:50:45;97838.03;;;10.62;100.00
11041;BME280;5573;49.592;8.662;2023-03-14T04:53:14;97838.97;;;10.72;100.00
11041;BME280;5573;49.592;8.662;2023-03-14T04:55:47;97829.28;;;10.67;100.00
11041;BME280;5573;49.592;8.662;2023-03-14T04:58:16;97822.41;;;10.75;100.00
11041;BME280;5573;49.592;8.662;2023-03-14T05:00:47;97827.28;;;10.68;100.00
11041;BME280;5573;49.592;8.662;2023-03-14T05:03:44;97831.06;;;10.57;100.00
11041;BME280;5573;49.592;8.662;2023-03-14T05:06:19;97812.44;;;10.49;100.00
11041;BME280;5573;49.592;8.662;2023-03-14T05:09:05;97813.00;;;10.73;100.00
11041;BME280;5573;49.592;8.662;2023-03-14T05:11:51;97822.91;;;10.70;100.00
11041;BME280;5573;49.592;8.662;2023-03-14T05:14:51;97824.34;;;10.75;100.00
11041;BME280;5573;49.592;8.662;2023-03-14T05:17:32;97817.56;;;10.80;100.00
11041;BME280;5573;49.592;8.662;2023-03-14T05:20:18;97819.78;;;11.01;100.00
11041;BME280;5573;49.592;8.662;2023-03-14T05:23:11;97802.63;;;10.64;100.00
11041;BME280;5573;49.592;8.662;2023-03-14T05:26:02;97811.53;;;10.85;100.00
11041;BME280;5573;49.592;8.662;2023-03-14T05:28:58;97804.69;;;10.60;100.00
11041;BME280;5573;49.592;8.662;2023-03-14T05:31:33;97812.59;;;10.74;100.00
11041;BME280;5573;49.592;8.662;2023-03-14T05:34:25;97805.72;;;10.66;100.00
11041;BME280;5573;49.592;8.662;2023-03-14T05:37:15;97793.94;;;10.66;100.00
11041;BME280;5573;49.592;8.662;2023-03-14T05:40:06;97801.09;;;10.63;100.00
11041;BME280;5573;49.592;8.662;2023-03-14T05:42:50;97810.50;;;10.78;100.00
11041;BME280;5573;49.592;8.662;2023-03-14T05:45:40;97793.59;;;10.47;100.00
11041;BME280;5573;49.592;8.662;2023-03-14T05:48:29;97788.97;;;10.61;100.00
11041;BME280;5573;49.592;8.662;2023-03-14T05:51:16;97803.75;;;10.67;100.00
11041;BME280;5573;49.592;8.662;2023-03-14T05:53:58;97804.59;;;10.64;100.00
11041;BME280;5573;49.592;8.662;2023-03-14T05:56:46;97799.91;;;10.48;100.00
11041;BME280;5573;49.592;8.662;2023-03-14T05:59:29;97804.00;;;10.56;100.00
11041;BME280;5573;49.592;8.662;2023-03-14T06:02:06;97801.50;;;10.62;100.00
11041;BME280;5573;49.592;8.662;2023-03-14T06:04:45;97788.09;;;10.64;100.00
11041;BME280;5573;49.592;8.662;2023-03-14T06:07:13;97793.53;;;10.67;100.00
11041;BME280;5573;49.592;8.662;2023-03-14T06:09:42;97795.66;;;10.76;100.00
11041;BME280;5573;49.592;8.662;2023-03-14T06:12:11;97790.94;;;10.76;100.00
11041;BME280;5573;49.592;8.662;2023-03-14T06:14:42;97795.91;;;10.82;100.00
11041;BME280;5573;49.592;8.662;2023-03-14T06:17:10;97808.38;;;10.70;100.00
11041;BME280;5573;49.592;8.662;2023-03-14T06:19:47;97788.88;;;10.64;100.00
11041;BME280;5573;49.592;8.662;2023-03-14T06:22:15;97789.41;;;10.75;100.00
11041;BME280;5573;49.592;8.662;2023-03-14T06:24:43;97791.00;;;10.73;100.00
11041;BME280;5573;49.592;8.662;2023-03-14T06:27:12;97789.47;;;10.72;100.00
11041;BME280;5573;49.592;8.662;2023-03-14T06:29:40;97785.50;;;10.73;100.00
11041;BME280;5573;49.592;8.662;2023-03-14T06:32:08;97788.59;;;10.75;100.00
11041;BME280;5573;49.592;8.662;2023-03-14T06:34:37;97784.91;;;10.82;100.00
11041;BME280;5573;49.592;8.662;2023-03-14T06:37:06;97786.94;;;10.94;100.00
11041;BME280;5573;49.592;8.662;2023-03-14T06:39:34;97789.19;;;10.83;100.00
11041;BME280;5573;49.592;8.662;2023-03-14T06:42:09;97783.44;;;10.77;100.00
11041;BME280;5573;49.592;8.662;2023-03-14T06:44:40;97781.91;;;10.76;100.00
11041;BME280;5573;49.592;8.662;2023-03-14T06:47:08;97791.34;;;10.75;100.00
11041;BME280;5573;49.592;8.662;2023-03-14T06:49:40;97787.91;;;10.71;100.00
11041;BME280;5573;49.592;8.662;2023-03-14T06:52:08;97787.91;;;10.71;100.00
11041;BME280;5573;49.592;8.662;2023-03-14T06:54:36;97801.59;;;10.74;100.00
11041;BME280;5573;49.592;8.662;2023-03-14T06:57:04;97793.34;;;10.58;100.00
11041;BME280;5573;49.592;8.662;2023-03-14T06:59:31;97788.03;;;10.67;100.00
11041;BME280;5573;49.592;8.662;2023-03-14T07:02:01;97759.09;;;10.30;100.00
11041;BME280;5573;49.592;8.662;2023-03-14T07:04:28;97779.59;;;10.58;100.00
11041;BME280;5573;49.592;8.662;2023-03-14T07:06:56;97782.53;;;10.67;100.00
11041;BME280;5573;49.592;8.662;2023-03-14T07:09:24;97776.97;;;10.54;100.00
11041;BME280;5573;49.592;8.662;2023-03-14T07:11:57;97778.25;;;10.33;100.00
11041;BME280;5573;49.592;8.662;2023-03-14T07:14:25;97766.47;;;10.33;100.00
11041;BME280;5573;49.592;8.662;2023-03-14T07:16:53;97765.53;;;10.40;100.00
11041;BME280;5573;49.592;8.662;2023-03-14T07:19:22;97771.00;;;10.56;100.00
11041;BME280;5573;49.592;8.662;2023-03-14T07:21:50;97771.94;;;10.66;100.00
11041;BME280;5573;49.592;8.662;2023-03-14T07:24:22;97771.63;;;10.64;100.00
11041;BME280;5573;49.592;8.662;2023-03-14T07:26:50;97771.81;;;10.56;100.00
11041;BME280;5573;49.592;8.662;2023-03-14T07:29:23;97768.72;;;10.54;100.00
11041;BME280;5573;49.592;8.662;2023-03-14T07:31:51;97732.56;;;10.40;100.00
11041;BME280;5573;49.592;8.662;2023-03-14T07:34:20;97765.66;;;10.82;100.00
11041;BME280;5573;49.592;8.662;2023-03-14T07:36:49;97762.81;;;10.85;100.00
11041;BME280;5573;49.592;8.662;2023-03-14T07:39:17;97762.41;;;10.70;100.00
11041;BME280;5573;49.592;8.662;2023-03-14T07:41:45;97768.41;;;10.82;100.00
11041;BME280;5573;49.592;8.662;2023-03-14T07:44:36;97750.44;;;10.48;100.00
11041;BME280;5573;49.592;8.662;2023-03-14T07:47:04;97788.66;;;10.88;100.00
11041;BME280;5573;49.592;8.662;2023-03-14T07:49:32;97784.19;;;10.94;100.00
11041;BME280;5573;49.592;8.662;2023-03-14T07:52:01;97792.28;;;10.85;100.00
11041;BME280;5573;49.592;8.662;2023-03-14T07:54:29;97780.91;;;10.99;100.00
11041;BME280;5573;49.592;8.662;2023-03-14T07:56:56;97789.97;;;10.83;100.00
11041;BME280;5573;49.592;8.662;2023-03-14T07:59:25;97797.16;;;10.93;100.00
11041;BME280;5573;49.592;8.662;2023-03-14T08:01:53;97800.69;;;10.94;100.00
11041;BME280;5573;49.592;8.662;2023-03-14T08:04:20;97792.31;;;11.14;100.00
11041;BME280;5573;49.592;8.662;2023-03-14T08:06:48;97806.41;;;11.16;100.00
11041;BME280;5573;49.592;8.662;2023-03-14T08:09:17;97804.72;;;11.06;100.00
11041;BME280;5573;49.592;8.662;2023-03-14T08:11:45;97810.31;;;11.02;100.00
11041;BME280;5573;49.592;8.662;2023-03-14T08:14:13;97809.44;;;11.05;100.00
11041;BME280;5573;49.592;8.662;2023-03-14T08:16:40;97805.47;;;11.06;100.00
11041;BME280;5573;49.592;8.662;2023-03-14T08:19:08;97818.31;;;11.26;100.00
11041;BME280;5573;49.592;8.662;2023-03-14T08:21:35;97826.88;;;11.15;100.00
11041;BME280;5573;49.592;8.662;2023-03-14T08:24:03;97812.72;;;11.00;100.00
11041;BME280;5573;49.592;8.662;2023-03-14T08:26:32;97824.66;;;11.10;100.00
11041;BME280;5573;49.592;8.662;2023-03-14T08:29:00;97820.44;;;11.05;100.00
11041;BME280;5573;49.592;8.662;2023-03-14T08:31:29;97823.38;;;10.98;100.00
11041;BME280;5573;49.592;8.662;2023-03-14T08:33:58;97824.38;;;11.21;100.00
11041;BME280;5573;49.592;8.662;2023-03-14T08:36:26;97828.34;;;11.19;100.00
11041;BME280;5573;49.592;8.662;2023-03-14T08:38:53;97835.47;;;11.17;100.00
11041;BME280;5573;49.592;8.662;2023-03-14T08:41:21;97823.97;;;11.06;100.00
11041;BME280;5573;49.592;8.662;2023-03-14T08:43:51;97837.88;;;11.15;100.00
11041;BME280;5573;49.592;8.662;2023-03-14T08:46:19;97824.56;;;11.13;100.00
11041;BME280;5573;49.592;8.662;2023-03-14T08:48:47;97824.56;;;11.13;100.00
11041;BME280;5573;49.592;8.662;2023-03-14T08:51:14;97825.06;;;11.08;100.00
11041;BME280;5573;49.592;8.662;2023-03-14T08:53:42;97819.41;;;11.15;100.00
11041;BME280;5573;49.592;8.662;2023-03-14T08:56:10;97817.13;;;11.27;100.00
11041;BME280;5573;49.592;8.662;2023-03-14T08:58:38;97813.59;;;11.26;100.00
11041;BME280;5573;49.592;8.662;2023-03-14T09:01:08;97809.41;;;11.22;100.00
11041;BME280;5573;49.592;8.662;2023-03-14T09:03:36;97811.72;;;11.23;100.00
11041;BME280;5573;49.592;8.662;2023-03-14T09:06:06;97812.28;;;11.31;100.00
11041;BME280;5573;49.592;8.662;2023-03-14T09:08:35;97820.59;;;11.44;100.00
11041;BME280;5573;49.592;8.662;2023-03-14T09:11:07;97804.84;;;11.44;100.00
11041;BME280;5573;49.592;8.662;2023-03-14T09:13:35;97811.75;;;11.36;100.00
11041;BME280;5573;49.592;8.662;2023-03-14T09:16:08;97814.69;;;11.58;100.00
11041;BME280;5573;49.592;8.662;2023-03-14T09:18:36;97811.84;;;11.62;100.00
11041;BME280;5573;49.592;8.662;2023-03-14T09:21:04;97803.38;;;11.69;100.00
11041;BME280;5573;49.592;8.662;2023-03-14T09:23:31;97820.66;;;11.69;100.00
11041;BME280;5573;49.592;8.662;2023-03-14T09:26:00;97814.16;;;11.76;100.00
11041;BME280;5573;49.592;8.662;2023-03-14T09:28:28;97808.78;;;11.72;100.00
11041;BME280;5573;49.592;8.662;2023-03-14T09:30:56;97817.41;;;11.87;100.00
11041;BME280;5573;49.592;8.662;2023-03-14T09:33:26;97806.91;;;11.82;100.00
11041;BME280;5573;49.592;8.662;2023-03-14T09:35:53;97822.09;;;11.74;100.00
11041;BME280;5573;49.592;8.662;2023-03-14T09:38:26;97818.31;;;11.55;100.00
11041;BME280;5573;49.592;8.662;2023-03-14T09:40:55;97824.63;;;11.68;100.00
11041;BME280;5573;49.592;8.662;2023-03-14T09:43:25;97846.53;;;11.72;100.00
11041;BME280;5573;49.592;8.662;2023-03-14T09:45:54;97822.66;;;11.69;100.00
11041;BME280;5573;49.592;8.662;2023-03-14T09:48:27;97818.84;;;11.50;100.00
11041;BME280;5573;49.592;8.662;2023-03-14T09:50:56;97822.09;;;11.74;100.00
11041;BME280;5573;49.592;8.662;2023-03-14T09:53:27;97821.88;;;11.68;100.00
11041;BME280;5573;49.592;8.662;2023-03-14T09:55:57;97831.19;;;11.45;100.00
11041;BME280;5573;49.592;8.662;2023-03-14T09:58:25;97827.16;;;11.63;100.00
11041;BME280;5573;49.592;8.662;2023-03-14T10:00:55;97837.16;;;11.56;100.00
11041;BME280;5573;49.592;8.662;2023-03-14T10:03:31;97814.38;;;11.69;100.00
11041;BME280;5573;49.592;8.662;2023-03-14T10:05:59;97823.78;;;11.84;100.00
11041;BME280;5573;49.592;8.662;2023-03-14T10:08:27;97831.25;;;11.84;100.00
11041;BME280;5573;49.592;8.662;2023-03-14T10:10:55;97831.59;;;11.73;100.00
11041;BME280;5573;49.592;8.662;2023-03-14T10:13:24;97843.91;;;11.68;100.00
11041;BME280;5573;49.592;8.662;2023-03-14T10:15:54;97846.47;;;11.46;100.00
11041;BME280;5573;49.592;8.662;2023-03-14T10:18:23;97845.03;;;11.42;100.00
11041;BME280;5573;49.592;8.662;2023-03-14T10:21:04;97838.72;;;11.57;100.00
11041;BME280;5573;49.592;8.662;2023-03-14T10:23:34;97840.63;;;11.44;100.00
11041;BME280;5573;49.592;8.662;2023-03-14T10:26:06;97842.44;;;11.22;100.00
11041;BME280;5573;49.592;8.662;2023-03-14T10:28:39;97838.72;;;11.28;100.00
11041;BME280;5573;49.592;8.662;2023-03-14T10:31:07;97829.56;;;11.31;100.00
11041;BME280;5573;49.592;8.662;2023-03-14T10:33:37;97805.47;;;11.06;100.00
11041;BME280;5573;49.592;8.662;2023-03-14T10:36:17;97837.09;;;11.14;100.00
11041;BME280;5573;49.592;8.662;2023-03-14T10:38:46;97833.94;;;11.16;100.00
11041;BME280;5573;49.592;8.662;2023-03-14T10:41:16;97824.03;;;11.48;100.00
11041;BME280;5573;49.592;8.662;2023-03-14T10:43:45;97824.59;;;11.55;100.00
11041;BME280;5573;49.592;8.662;2023-03-14T10:46:18;97831.69;;;11.40;100.00
11041;BME280;5573;49.592;8.662;2023-03-14T10:49:06;97834.84;;;11.26;100.00
11041;BME280;5573;49.592;8.662;2023-03-14T10:51:35;97829.44;;;11.22;100.00
11041;BME280;5573;49.592;8.662;2023-03-14T10:54:12;97823.81;;;11.26;100.00
11041;BME280;5573;49.592;8.662;2023-03-14T10:56:40;97839.22;;;11.23;100.00
11041;BME280;5573;49.592;8.662;2023-03-14T10:59:13;97830.84;;;11.14;100.00
11041;BME280;5573;49.592;8.662;2023-03-14T11:01:44;97831.09;;;11.19;100.00
11041;BME280;5573;49.592;8.662;2023-03-14T11:04:26;97833.19;;;10.99;100.00
11041;BME280;5573;49.592;8.662;2023-03-14T11:07:05;97838.03;;;10.78;100.00
11041;BME280;5573;49.592;8.662;2023-03-14T11:09:40;97849.47;;;10.61;100.00
11041;BME280;5573;49.592;8.662;2023-03-14T11:12:34;97841.13;;;10.31;100.00
11041;BME280;5573;49.592;8.662;2023-03-14T11:15:11;97841.91;;;10.48;100.00
11041;BME280;5573;49.592;8.662;2023-03-14T11:17:50;97863.34;;;10.37;100.00
11041;BME280;5573;49.592;8.662;2023-03-14T11:20:32;97844.38;;;10.43;100.00
11041;BME280;5573;49.592;8.662;2023-03-14T11:23:09;97847.78;;;10.30;100.00
11041;BME280;5573;49.592;8.662;2023-03-14T11:25:43;97854.44;;;10.49;100.00
11041;BME280;5573;49.592;8.662;2023-03-14T11:28:18;97854.69;;;10.38;100.00
11041;BME280;5573;49.592;8.662;2023-03-14T11:30:52;97859.22;;;10.45;100.00
11041;BME280;5573;49.592;8.662;2023-03-14T11:33:22;97863.97;;;10.45;100.00
11041;BME280;5573;49.592;8.662;2023-03-14T11:35:58;97863.88;;;10.48;100.00
11041;BME280;5573;49.592;8.662;2023-03-14T11:38:33;97859.06;;;10.69;100.00
11041;BME280;5573;49.592;8.662;2023-03-14T11:41:04;97863.56;;;10.63;100.00
11041;BME280;5573;49.592;8.662;2023-03-14T11:43:39;97865.19;;;10.44;100.00
11041;BME280;5573;49.592;8.662;2023-03-14T11:46:11;97872.72;;;10.40;100.00
11041;BME280;5573;49.592;8.662;2023-03-14T11:48:44;97884.56;;;10.36;100.00
11041;BME280;5573;49.592;8.662;2023-03-14T11:51:18;97894.03;;;10.35;100.00
11041;BME280;5573;49.592;8.662;2023-03-14T11:53:55;97865.72;;;9.98;100.00
11041;BME280;5573;49.592;8.662;2023-03-14T11:56:29;97897.00;;;10.05;100.00
11041;BME280;5573;49.592;8.662;2023-03-14T11:59:02;97911.31;;;9.96;100.00
11041;BME280;5573;49.592;8.662;2023-03-14T12:01:39;97917.34;;;10.07;100.00
11041;BME280;5573;49.592;8.662;2023-03-14T12:04:13;97917.34;;;10.07;100.00
11041;BME280;5573;49.592;8.662;2023-03-14T12:06:48;97927.75;;;10.16;100.00
11041;BME280;5573;49.592;8.662;2023-03-14T12:09:20;97931.31;;;10.16;100.00
11041;BME280;5573;49.592;8.662;2023-03-14T12:11:50;97912.56;;;10.11;100.00
11041;BME280;5573;49.592;8.662;2023-03-14T12:14:25;97962.16;;;10.44;100.00
11041;BME280;5573;49.592;8.662;2023-03-14T12:16:54;97968.97;;;10.16;100.00
11041;BME280;5573;49.592;8.662;2023-03-14T12:19:32;97985.91;;;10.14;100.00
11041;BME280;5573;49.592;8.662;2023-03-14T12:22:08;97988.56;;;10.18;100.00
11041;BME280;5573;49.592;8.662;2023-03-14T12:24:45;97995.91;;;10.05;100.00
11041;BME280;5573;49.592;8.662;2023-03-14T12:27:47;98010.69;;;10.11;100.00
11041;BME280;5573;49.592;8.662;2023-03-14T12:30:18;98017.69;;;9.72;100.00
11041;BME280;5573;49.592;8.662;2023-03-14T12:36:04;98050.81;;;9.85;100.00
11041;BME280;5573;49.592;8.662;2023-03-14T12:39:03;98071.63;;;9.82;100.00
11041;BME280;5573;49.592;8.662;2023-03-14T12:41:42;98068.41;;;9.87;100.00
11041;BME280;5573;49.592;8.662;2023-03-14T12:44:40;98073.78;;;9.94;100.00
11041;BME280;5573;49.592;8.662;2023-03-14T12:47:48;98093.78;;;9.95;100.00
11041;BME280;5573;49.592;8.662;2023-03-14T12:50:25;98112.84;;;10.26;100.00
11041;BME280;5573;49.592;8.662;2023-03-14T12:55:45;98127.28;;;10.33;100.00
11041;BME280;5573;49.592;8.662;2023-03-14T12:58:22;98144.41;;;10.41;100.00
11041;BME280;5573;49.592;8.662;2023-03-14T13:00:57;98147.75;;;10.52;100.00
11041;BME280;5573;49.592;8.662;2023-03-14T13:03:37;98162.75;;;10.48;100.00
11041;BME280;5573;49.592;8.662;2023-03-14T13:06:09;98173.50;;;10.38;100.00
11041;BME280;5573;49.592;8.662;2023-03-14T13:08:39;98182.31;;;10.30;100.00
11041;BME280;5573;49.592;8.662;2023-03-14T13:11:10;98187.25;;;10.38;100.00
11041;BME280;5573;49.592;8.662;2023-03-14T13:13:46;98195.84;;;10.41;100.00
11041;BME280;5573;49.592;8.662;2023-03-14T13:16:17;98206.56;;;10.35;100.00
11041;BME280;5573;49.592;8.662;2023-03-14T13:18:47;98202.47;;;10.20;100.00
11041;BME280;5573;49.592;8.662;2023-03-14T13:21:17;98212.63;;;10.23;100.00
11041;BME280;5573;49.592;8.662;2023-03-14T13:23:57;98218.53;;;10.21;100.00
11041;BME280;5573;49.592;8.662;2023-03-14T13:26:34;98237.31;;;9.99;100.00
11041;BME280;5573;49.592;8.662;2023-03-14T13:29:14;98233.63;;;10.09;94.95
11041;BME280;5573;49.592;8.662;2023-03-14T13:31:43;98242.06;;;10.22;95.03
11041;BME280;5573;49.592;8.662;2023-03-14T13:34:12;98257.53;;;10.40;92.30